Terminal Aerodrome Forecast
Issued by NWS

Home | Current Version | Previous Version | Text Only | Print | Product List | Glossary On
Versions: 1 2 3 4 5 6 7 8 9 10 11 12 13 14
088
FTUS41 KPBZ 182320
TAFFKL
TAF
KFKL 182320Z 1900/1924 24005KT 4SM BR OVC005
     FM191300 22005KT P6SM OVC012
     FM191800 22005KT P6SM SCT150
      AMD NOT SKED=

USA.gov is the U.S. government's official web portal to all federal, state and local government web resources and services.